Time;durP1;ratioP1;P1;durP2;ratioP2;P2;SDS_P1;SDS_P2;PMS_P1;PMS_P2;Temp;Humidity;BMP_temperature;BMP_pressure;BME280_temperature;BME280_humidity;BME280_pressure;Samples;Min_cycle;Max_cycle;Signal;HPM_P1;HPM_P2
2023/11/20 00:01:34;;;;;;;20.58;12.65;;;;;;;14.90;67.22;99135.88;5092392;28;20027;-47
2023/11/20 00:04:01;;;;;;;16.65;9.52;;;;;;;15.12;66.24;99136.28;5092068;28;20036;-47
2023/11/20 00:06:31;;;;;;;12.40;8.73;;;;;;;15.23;65.34;99130.25;5093276;28;20024;-47
2023/11/20 00:08:57;;;;;;;22.02;17.70;;;;;;;15.19;64.44;99123.78;5093577;28;20020;-47
2023/11/20 00:11:23;;;;;;;33.38;30.30;;;;;;;14.88;64.48;99111.50;5093624;28;20066;-47
2023/11/20 00:13:49;;;;;;;17.35;11.77;;;;;;;14.50;64.79;99117.66;5092864;28;20052;-47
2023/11/20 00:16:15;;;;;;;12.27;10.35;;;;;;;14.20;65.47;99118.28;5093037;28;20513;-47
2023/11/20 00:18:41;;;;;;;15.38;11.32;;;;;;;13.92;65.80;99110.72;5093060;28;20032;-46
2023/11/20 00:21:06;;;;;;;12.10;8.68;;;;;;;13.42;66.29;99108.72;5091675;28;20024;-47
2023/11/20 00:23:32;;;;;;;14.75;8.15;;;;;;;12.90;68.13;99102.53;5092951;28;20064;-47
2023/11/20 00:25:58;;;;;;;10.18;7.13;;;;;;;12.75;69.78;99095.66;5092890;28;20016;-47
2023/11/20 00:28:24;;;;;;;13.02;9.52;;;;;;;12.66;69.93;99096.09;5091598;28;20024;-46
2023/11/20 00:30:50;;;;;;;12.98;11.73;;;;;;;12.49;70.35;99091.19;5092824;28;20390;-47
2023/11/20 00:33:16;;;;;;;16.00;10.40;;;;;;;12.21;70.70;99094.03;5091358;28;20024;-47
2023/11/20 00:35:41;;;;;;;9.82;7.88;;;;;;;12.34;72.94;99095.88;5092673;28;20028;-49
2023/11/20 00:38:08;;;;;;;16.40;9.68;;;;;;;12.74;72.69;99090.59;5092937;28;20032;-49
2023/11/20 00:40:33;;;;;;;18.10;12.00;;;;;;;12.96;71.68;99089.34;5092605;28;20021;-49
2023/11/20 00:43:00;;;;;;;15.60;9.00;;;;;;;12.93;70.52;99081.84;5092581;28;20031;-49
2023/11/20 00:45:26;;;;;;;17.10;15.27;;;;;;;12.90;70.81;99087.53;5092597;28;20026;-49
2023/11/20 00:47:52;;;;;;;10.05;7.55;;;;;;;12.97;70.46;99079.63;5092469;28;20375;-49
2023/11/20 00:50:18;;;;;;;14.50;10.40;;;;;;;12.76;69.86;99076.22;5091644;28;20032;-49
2023/11/20 00:52:44;;;;;;;11.70;9.02;;;;;;;12.63;70.88;99078.03;5091092;28;20024;-49
2023/11/20 00:55:10;;;;;;;13.77;8.50;;;;;;;12.88;71.33;99081.66;5092373;28;20016;-50
2023/11/20 00:57:37;;;;;;;18.60;13.35;;;;;;;13.11;70.29;99075.13;5091149;28;20024;-49
2023/11/20 01:00:08;;;;;;;16.63;10.57;;;;;;;13.21;70.00;99078.13;5091042;28;20028;-50
2023/11/20 01:02:34;;;;;;;11.55;7.57;;;;;;;13.48;69.19;99086.81;5092271;28;20501;-49
2023/11/20 01:05:00;;;;;;;15.77;11.90;;;;;;;13.77;68.60;99084.63;5092316;28;20023;-49
2023/11/20 01:07:27;;;;;;;11.13;8.52;;;;;;;13.85;67.36;99080.94;5092104;28;20024;-49
2023/11/20 01:09:53;;;;;;;14.70;9.25;;;;;;;13.70;67.48;99082.03;5091150;28;20135;-49
2023/11/20 01:12:18;;;;;;;9.25;7.50;;;;;;;13.89;67.46;99084.78;5090737;28;20111;-50
2023/11/20 01:14:47;;;;;;;10.02;7.72;;;;;;;14.03;66.45;99082.88;5091938;28;20050;-50
2023/11/20 01:17:16;;;;;;;11.00;7.90;;;;;;;13.84;65.79;99079.31;5092056;28;20048;-49
2023/11/20 01:19:43;;;;;;;15.15;13.60;;;;;;;13.28;65.82;99076.31;5092058;28;20406;-49
2023/11/20 01:22:09;;;;;;;11.38;8.85;;;;;;;12.76;66.82;99086.75;5091926;28;20489;-49
2023/11/20 01:24:35;;;;;;;11.27;9.20;;;;;;;12.25;67.77;99083.91;5092024;28;20027;-50
2023/11/20 01:27:02;;;;;;;8.43;7.05;;;;;;;11.87;68.79;99089.69;5091913;28;20024;-49
2023/11/20 01:29:28;;;;;;;14.73;10.48;;;;;;;11.62;69.82;99090.22;5092190;28;20035;-49
2023/11/20 01:31:54;;;;;;;12.45;8.57;;;;;;;11.36;70.38;99099.59;5092078;28;20020;-49
2023/11/20 01:34:20;;;;;;;10.05;8.00;;;;;;;11.08;71.22;99090.97;5091829;28;20513;-49
2023/11/20 01:36:45;;;;;;;10.90;7.68;;;;;;;10.84;71.77;99095.66;5091831;28;20673;-49
2023/11/20 01:39:12;;;;;;;27.90;19.48;;;;;;;10.67;72.61;99097.78;5091896;28;20111;-49
2023/11/20 01:41:39;;;;;;;96.55;88.30;;;;;;;10.51;73.06;99090.19;5091728;28;20020;-49
2023/11/20 01:44:05;;;;;;;59.80;54.47;;;;;;;10.41;73.78;99094.94;5091723;28;20426;-49
2023/11/20 01:46:31;;;;;;;20.13;17.95;;;;;;;10.35;74.79;99092.06;5091786;28;20024;-49
2023/11/20 01:48:59;;;;;;;12.48;9.63;;;;;;;10.32;74.86;99086.38;5091699;28;20028;-49
2023/11/20 01:51:28;;;;;;;15.68;11.65;;;;;;;10.25;75.33;99098.59;5091610;28;20024;-49
2023/11/20 01:53:57;;;;;;;15.88;10.30;;;;;;;10.18;75.72;99095.91;5090361;28;20035;-49
2023/11/20 01:56:25;;;;;;;12.57;9.05;;;;;;;10.09;76.03;99083.94;5091658;28;20142;-49
2023/11/20 01:58:52;;;;;;;10.52;8.77;;;;;;;9.96;76.59;99085.44;5091632;28;20505;-49
2023/11/20 02:01:20;;;;;;;14.80;9.63;;;;;;;9.93;77.25;99087.59;5094238;28;20020;-49
2023/11/20 02:03:46;;;;;;;62.50;55.50;;;;;;;9.92;77.65;99075.47;5095924;28;20020;-49
2023/11/20 02:06:15;;;;;;;72.90;63.60;;;;;;;9.97;78.10;99084.41;5094278;28;20028;-49
2023/11/20 02:08:41;;;;;;;103.70;94.03;;;;;;;10.02;77.86;99078.63;5095601;28;20027;-49
2023/11/20 02:11:07;;;;;;;79.97;72.18;;;;;;;10.05;78.02;99086.09;5094159;28;20032;-49
2023/11/20 02:13:33;;;;;;;27.55;24.63;;;;;;;10.24;78.59;99076.00;5095200;28;20036;-50
2023/11/20 02:15:58;;;;;;;80.28;72.55;;;;;;;10.36;78.48;99079.75;5094056;28;20107;-49
2023/11/20 02:18:33;;;;;;;116.13;105.70;;;;;;;10.44;78.43;99076.19;5093974;28;20023;-49
2023/11/20 02:20:59;;;;;;;304.67;274.47;;;;;;;10.58;78.32;99073.50;5095639;28;20100;-49
2023/11/20 02:23:24;;;;;;;144.50;130.73;;;;;;;10.59;77.78;99067.22;5093901;28;20545;-49
2023/11/20 02:26:07;;;;;;;376.67;342.10;;;;;;;10.47;77.82;99067.94;5095162;28;20027;-49
2023/11/20 02:28:53;;;;;;;209.45;190.15;;;;;;;10.92;78.89;99063.19;5093845;28;20039;-49
2023/11/20 02:31:19;;;;;;;139.55;125.85;;;;;;;11.42;77.91;99061.22;5095093;28;20020;-49
2023/11/20 02:33:44;;;;;;;161.23;145.82;;;;;;;11.67;76.44;99056.28;5093772;28;20032;-49
2023/11/20 02:36:12;;;;;;;228.90;208.88;;;;;;;11.92;75.30;99055.75;5093673;28;20022;-49
2023/11/20 02:38:41;;;;;;;105.10;95.03;;;;;;;12.16;74.82;99042.00;5095030;28;20031;-49
2023/11/20 02:41:07;;;;;;;35.22;26.92;;;;;;;12.53;75.22;99047.66;5093649;28;20024;-49
2023/11/20 02:43:38;;;;;;;32.00;28.60;;;;;;;12.65;75.33;99044.41;5093642;28;20090;-49
2023/11/20 02:46:06;;;;;;;38.72;35.00;;;;;;;12.62;74.77;99044.84;5094921;28;20054;-49
2023/11/20 02:48:32;;;;;;;29.65;26.95;;;;;;;12.73;74.37;99047.63;5094829;28;20020;-49
2023/11/20 02:50:58;;;;;;;14.93;11.60;;;;;;;12.70;72.98;99048.06;5094786;28;20050;-50
2023/11/20 02:53:23;;;;;;;8.43;7.53;;;;;;;12.68;72.38;99044.03;5094649;28;20020;-49
2023/11/20 02:55:50;;;;;;;12.63;8.45;;;;;;;12.58;71.37;99045.25;5094681;28;20016;-49
2023/11/20 02:58:16;;;;;;;9.43;8.40;;;;;;;12.65;70.78;99044.41;5094607;28;20055;-49
2023/11/20 03:00:42;;;;;;;34.97;28.35;;;;;;;12.76;69.85;99041.16;5093259;28;20060;-49
2023/11/20 03:03:07;;;;;;;21.85;13.85;;;;;;;12.64;68.70;99043.63;5094499;28;20032;-49
2023/11/20 03:05:36;;;;;;;10.63;8.95;;;;;;;12.25;68.61;99039.16;5094704;28;20028;-49
2023/11/20 03:08:01;;;;;;;6.82;5.88;;;;;;;12.11;69.36;99044.44;5094436;28;20032;-49
2023/11/20 03:10:27;;;;;;;11.93;8.00;;;;;;;11.58;68.12;99041.66;5093177;28;20085;-49
2023/11/20 03:12:53;;;;;;;10.60;8.77;;;;;;;10.97;70.40;99035.38;5092997;28;20031;-50
2023/11/20 03:15:21;;;;;;;8.40;6.10;;;;;;;10.93;71.38;99038.56;5094312;28;20062;-49
2023/11/20 03:17:47;;;;;;;6.60;5.65;;;;;;;10.84;72.08;99024.78;5094337;28;20044;-49
2023/11/20 03:20:13;;;;;;;8.85;6.47;;;;;;;10.91;72.97;99015.13;5092877;28;20057;-49
2023/11/20 03:22:38;;;;;;;8.88;4.55;;;;;;;11.00;72.60;99015.78;5092888;28;20028;-49
2023/11/20 03:25:06;;;;;;;5.63;5.03;;;;;;;10.68;71.91;99012.75;5092808;28;20461;-49
2023/11/20 03:27:32;;;;;;;7.68;5.18;;;;;;;10.18;72.96;99011.97;5094125;28;20073;-49
2023/11/20 03:29:58;;;;;;;7.05;5.07;;;;;;;9.87;74.12;99013.13;5092703;28;20443;-49
2023/11/20 03:32:24;;;;;;;8.07;7.28;;;;;;;9.65;75.60;99011.50;5093834;28;20020;-49
2023/11/20 03:34:50;;;;;;;12.90;6.10;;;;;;;9.77;77.02;99013.44;5092681;28;20118;-49
2023/11/20 03:37:15;;;;;;;7.72;5.45;;;;;;;9.96;77.31;99008.56;5093822;28;20107;-49
2023/11/20 03:39:41;;;;;;;8.43;7.35;;;;;;;10.24;76.81;99008.63;5093840;28;20024;-49
2023/11/20 03:42:06;;;;;;;10.10;6.45;;;;;;;10.28;75.76;99003.78;5093786;28;20020;-50
2023/11/20 03:44:32;;;;;;;6.45;4.78;;;;;;;10.17;76.27;99008.53;5092421;28;20501;-49
2023/11/20 03:46:58;;;;;;;8.88;5.65;;;;;;;10.04;76.42;99000.59;5092378;28;20120;-50
2023/11/20 03:49:23;;;;;;;8.73;6.40;;;;;;;9.61;76.21;99005.81;5093672;28;20047;-50
2023/11/20 03:51:49;;;;;;;11.40;7.60;;;;;;;9.16;77.79;99005.13;5093489;28;20099;-50
2023/11/20 03:54:15;;;;;;;9.82;6.70;;;;;;;8.75;79.46;98995.97;5093546;28;20089;-50
2023/11/20 03:56:40;;;;;;;9.75;5.80;;;;;;;8.57;80.33;98998.94;5093451;28;20094;-49
2023/11/20 03:59:06;;;;;;;7.80;6.28;;;;;;;8.52;81.60;99000.44;5093436;28;20031;-49
2023/11/20 04:01:32;;;;;;;10.63;5.93;;;;;;;8.28;82.30;99006.69;5092089;28;20115;-49
2023/11/20 04:03:57;;;;;;;12.07;7.13;;;;;;;8.29;83.22;99006.53;5093361;28;20102;-49
2023/11/20 04:06:23;;;;;;;9.38;7.32;;;;;;;8.71;84.60;99012.19;5093252;28;20024;-49
2023/11/20 04:08:49;;;;;;;17.13;6.15;;;;;;;9.28;84.71;99002.84;5091992;28;20389;-49
2023/11/20 04:11:15;;;;;;;18.27;7.93;;;;;;;10.00;83.40;98994.91;5093104;28;20016;-49
2023/11/20 04:13:40;;;;;;;10.32;5.95;;;;;;;10.50;80.92;98989.66;5092853;28;20123;-49
2023/11/20 04:16:10;;;;;;;8.43;5.15;;;;;;;10.94;79.02;98992.91;5093112;28;20117;-49
2023/11/20 04:18:35;;;;;;;9.05;4.95;;;;;;;11.25;76.59;98997.72;5075003;28;20054;-49
2023/11/20 04:21:03;;;;;;;10.73;5.35;;;;;;;11.36;75.42;98999.75;5093013;28;20056;-49
2023/11/20 04:23:29;;;;;;;6.88;5.18;;;;;;;11.48;73.80;98996.56;5092849;28;20107;-49
2023/11/20 04:25:55;;;;;;;9.15;7.32;;;;;;;11.34;73.73;99000.97;5091630;28;20111;-50
2023/11/20 04:28:20;;;;;;;7.80;5.63;;;;;;;11.52;73.56;98992.53;5092920;28;20091;-49
2023/11/20 04:30:46;;;;;;;8.30;5.97;;;;;;;11.74;71.82;98985.28;5092926;28;20020;-49
2023/11/20 04:33:12;;;;;;;7.05;4.75;;;;;;;11.62;71.41;98992.94;5092751;28;20024;-49
2023/11/20 04:35:38;;;;;;;9.75;4.75;;;;;;;11.85;71.02;98989.97;5091438;28;20097;-49
2023/11/20 04:38:03;;;;;;;7.40;5.00;;;;;;;12.07;69.86;98982.69;5091415;28;20020;-49
2023/11/20 04:40:29;;;;;;;8.10;4.70;;;;;;;12.22;68.71;98989.59;5091374;28;20032;-49
2023/11/20 04:42:55;;;;;;;9.35;5.95;;;;;;;12.45;68.49;98992.59;5092674;28;20450;-49
2023/11/20 04:45:21;;;;;;;7.70;5.72;;;;;;;12.55;67.28;98995.59;5091300;28;20047;-49
2023/11/20 04:47:46;;;;;;;6.50;5.25;;;;;;;12.24;65.35;98990.19;5091328;28;20048;-49
2023/11/20 04:50:12;;;;;;;134.70;12.93;;;;;;;11.57;65.53;98993.56;5092502;28;20474;-49
2023/11/20 04:52:38;;;;;;;13.02;6.35;;;;;;;10.87;66.41;98992.91;5092663;28;20020;-49
2023/11/20 04:55:04;;;;;;;21.63;7.28;;;;;;;10.35;67.62;98988.94;5092465;28;20061;-49
2023/11/20 04:57:31;;;;;;;15.57;8.27;;;;;;;10.04;69.26;98997.97;5092669;28;20024;-49
2023/11/20 04:59:57;;;;;;;19.50;9.90;;;;;;;9.88;70.08;98985.94;5092442;28;20061;-49
2023/11/20 05:02:26;;;;;;;41.92;7.50;;;;;;;9.66;70.44;98987.75;5092279;28;20016;-49
2023/11/20 05:04:52;;;;;;;47.60;6.10;;;;;;;9.36;70.36;98984.41;5090997;28;20119;-49
2023/11/20 05:07:18;;;;;;;14.82;6.20;;;;;;;8.92;70.62;98990.53;5092241;28;20031;-49
2023/11/20 05:09:44;;;;;;;10.40;6.15;;;;;;;8.58;71.35;98986.66;5090901;28;20393;-49
2023/11/20 05:12:09;;;;;;;8.38;5.95;;;;;;;8.66;73.42;98980.53;5090744;28;20028;-49
2023/11/20 05:14:35;;;;;;;11.93;6.22;;;;;;;9.05;73.75;98979.41;5090484;28;20044;-50
2023/11/20 05:17:01;;;;;;;11.20;6.55;;;;;;;9.21;73.92;98984.41;5092071;28;20031;-49
2023/11/20 05:19:26;;;;;;;9.32;6.60;;;;;;;9.63;73.32;98990.72;5092099;28;20024;-49
2023/11/20 05:21:52;;;;;;;50.15;7.13;;;;;;;9.65;71.00;98980.06;5092068;28;20398;-49
2023/11/20 05:24:18;;;;;;;26.48;6.20;;;;;;;9.03;70.41;98984.81;5092282;28;20409;-49
2023/11/20 05:26:43;;;;;;;9.10;6.38;;;;;;;8.70;72.29;98982.59;5091989;28;20016;-49
2023/11/20 05:29:11;;;;;;;64.05;7.78;;;;;;;8.85;73.28;98984.38;5091969;28;20024;-49
2023/11/20 05:31:38;;;;;;;21.13;16.38;;;;;;;8.70;72.35;98987.03;5091758;28;20288;-49
2023/11/20 05:34:04;;;;;;;66.03;17.80;;;;;;;8.43;72.51;98988.44;5091899;28;20024;-49
2023/11/20 05:36:29;;;;;;;113.63;12.88;;;;;;;8.71;74.83;98999.09;5091328;28;20440;-49
2023/11/20 05:38:55;;;;;;;120.15;13.77;;;;;;;9.37;74.48;98988.63;5090533;28;20464;-49
2023/11/20 05:41:21;;;;;;;66.85;11.60;;;;;;;9.77;72.47;98981.97;5090443;28;20119;-49
2023/11/20 05:43:47;;;;;;;66.78;16.27;;;;;;;9.66;71.20;98987.75;5091885;28;20120;-49
2023/11/20 05:46:13;;;;;;;44.45;10.50;;;;;;;9.29;71.05;98986.13;5091783;28;20028;-49
2023/11/20 05:48:39;;;;;;;71.43;10.40;;;;;;;8.89;71.32;98990.88;5091708;28;20020;-49
2023/11/20 05:51:05;;;;;;;48.28;10.95;;;;;;;8.56;71.97;98978.16;5091734;28;20028;-49
2023/11/20 05:53:30;;;;;;;37.95;8.32;;;;;;;8.32;72.41;98976.59;5091634;28;20020;-48
2023/11/20 05:55:56;;;;;;;52.83;9.90;;;;;;;8.16;73.21;98970.50;5091698;28;20024;-49
2023/11/20 05:58:22;;;;;;;42.15;8.63;;;;;;;8.08;73.42;98975.00;5091647;28;20020;-49
2023/11/20 06:00:48;;;;;;;61.30;13.15;;;;;;;7.94;74.20;98971.38;5073529;28;20035;-49
2023/11/20 06:03:14;;;;;;;71.32;9.30;;;;;;;7.79;74.35;98977.34;5090238;28;20028;-49
2023/11/20 06:05:39;;;;;;;64.40;8.68;;;;;;;7.71;74.74;98979.22;5090269;28;20038;-49
2023/11/20 06:08:05;;;;;;;40.85;8.63;;;;;;;7.62;75.19;98975.84;5091581;28;20390;-49
2023/11/20 06:10:31;;;;;;;14.93;7.10;;;;;;;7.52;75.37;98975.25;5090224;28;20059;-49
2023/11/20 06:12:56;;;;;;;20.88;7.63;;;;;;;7.48;76.15;98985.22;5090176;28;20024;-49
2023/11/20 06:15:23;;;;;;;24.17;16.80;;;;;;;7.47;77.42;98986.25;5089925;28;20480;-49
2023/11/20 06:17:48;;;;;;;22.20;9.88;;;;;;;7.80;79.68;98975.56;5090151;28;20519;-49
2023/11/20 06:20:14;;;;;;;40.10;28.70;;;;;;;8.85;80.28;98973.91;5091706;28;20089;-49
2023/11/20 06:22:41;;;;;;;24.15;10.50;;;;;;;9.65;78.20;98969.56;5091469;28;20485;-49
2023/11/20 06:25:08;;;;;;;33.25;8.93;;;;;;;9.92;75.84;98971.44;5091306;28;20017;-49
2023/11/20 06:27:34;;;;;;;13.90;6.38;;;;;;;9.78;74.94;98970.50;5090162;28;20120;-49
2023/11/20 06:30:00;;;;;;;18.52;6.60;;;;;;;9.70;74.72;98972.44;5090082;28;20016;-49
2023/11/20 06:32:25;;;;;;;21.33;7.22;;;;;;;9.61;74.76;98977.00;5090269;28;20085;-49
2023/11/20 06:34:51;;;;;;;17.13;9.88;;;;;;;9.77;75.44;98976.75;5091383;28;20101;-49
2023/11/20 06:37:17;;;;;;;13.40;5.18;;;;;;;10.11;74.54;98977.84;5090105;28;20016;-49
2023/11/20 06:39:43;;;;;;;16.83;5.93;;;;;;;10.01;73.67;98985.22;5090346;28;20029;-49
2023/11/20 06:42:09;;;;;;;27.40;15.13;;;;;;;10.27;73.31;98987.25;5091223;28;20405;-49
2023/11/20 06:44:40;;;;;;;18.92;7.70;;;;;;;10.37;72.36;98977.25;5089909;28;20106;-49
2023/11/20 06:47:09;;;;;;;14.60;7.47;;;;;;;10.18;71.53;98978.72;5091859;28;20020;-49
2023/11/20 06:49:35;;;;;;;18.83;12.25;;;;;;;10.02;71.39;98988.66;5094852;28;20517;-49
2023/11/20 06:52:01;;;;;;;14.20;6.93;;;;;;;10.00;71.39;98989.66;5094674;28;20035;-49
2023/11/20 06:54:26;;;;;;;18.83;8.25;;;;;;;9.92;70.80;98981.94;5093606;28;20020;-49
2023/11/20 06:56:53;;;;;;;21.17;7.32;;;;;;;9.75;70.33;98996.28;5093344;28;20055;-49
2023/11/20 06:59:19;;;;;;;23.10;6.72;;;;;;;9.51;70.62;98982.53;5094638;28;20367;-49
2023/11/20 07:01:46;;;;;;;18.58;7.38;;;;;;;9.42;70.80;98988.06;5094628;28;20501;-49
2023/11/20 07:04:14;;;;;;;16.33;7.20;;;;;;;9.46;71.11;98986.72;5095103;28;20024;-49
2023/11/20 07:06:42;;;;;;;12.23;7.57;;;;;;;9.65;71.46;98980.88;5094489;28;20028;-49
2023/11/20 07:09:18;;;;;;;15.52;6.65;;;;;;;9.95;71.56;98981.53;5094418;28;20020;-49
2023/11/20 07:11:44;;;;;;;29.77;8.77;;;;;;;10.58;71.21;98992.13;5093310;28;20427;-49
2023/11/20 07:14:11;;;;;;;20.50;7.35;;;;;;;11.58;69.11;98986.47;5092770;28;20047;-50
2023/11/20 07:16:40;;;;;;;35.10;8.65;;;;;;;12.49;66.46;98980.63;5094295;28;20016;-49
2023/11/20 07:19:07;;;;;;;15.00;7.88;;;;;;;12.93;64.68;98992.28;5094193;28;20020;-50
2023/11/20 07:21:33;;;;;;;25.58;7.68;;;;;;;13.37;63.43;98982.78;5094213;28;20023;-49
2023/11/20 07:24:01;;;;;;;16.27;7.68;;;;;;;14.02;61.82;98983.59;5094173;28;20028;-49
2023/11/20 07:26:27;;;;;;;23.65;7.57;;;;;;;14.49;59.47;98984.00;5094088;28;20099;-49
2023/11/20 07:28:53;;;;;;;14.00;8.20;;;;;;;14.74;57.51;98973.41;5094118;28;20535;-49
2023/11/20 07:31:29;;;;;;;20.48;10.15;;;;;;;15.28;57.46;98978.88;5094020;28;20020;-46
2023/11/20 07:33:55;;;;;;;26.65;12.95;;;;;;;15.70;56.14;98969.13;5092784;28;20052;-47
2023/11/20 07:36:21;;;;;;;20.42;8.35;;;;;;;15.77;55.01;98979.63;5093894;28;20035;-47
2023/11/20 07:38:47;;;;;;;17.80;7.47;;;;;;;15.19;55.01;98983.66;5092547;28;20039;-47
2023/11/20 07:41:14;;;;;;;19.67;12.80;;;;;;;14.42;56.59;98994.63;5093816;28;20027;-47
2023/11/20 07:43:40;;;;;;;15.30;8.50;;;;;;;13.84;57.18;98987.78;5092496;28;20029;-47
2023/11/20 07:46:07;;;;;;;18.77;8.23;;;;;;;13.56;59.49;98988.16;5093717;28;20093;-47
2023/11/20 07:48:34;;;;;;;38.90;9.98;;;;;;;13.73;58.59;98999.03;5093748;28;20111;-47
2023/11/20 07:51:00;;;;;;;36.83;13.38;;;;;;;13.46;58.96;98995.72;5092286;28;20095;-47
2023/11/20 07:53:26;;;;;;;18.33;8.85;;;;;;;12.88;59.04;98992.09;5093457;28;20111;-47
2023/11/20 07:55:52;;;;;;;19.50;8.60;;;;;;;12.36;60.42;98999.09;5093450;28;20065;-47
2023/11/20 07:58:18;;;;;;;21.13;8.50;;;;;;;12.07;61.45;98987.94;5093037;28;20028;-49
2023/11/20 08:00:45;;;;;;;24.52;9.52;;;;;;;11.95;62.35;98981.69;5092056;28;20111;-49
2023/11/20 08:03:12;;;;;;;23.95;10.55;;;;;;;11.69;63.03;98985.06;5092082;28;20493;-49
2023/11/20 08:05:37;;;;;;;41.50;22.27;;;;;;;11.53;64.53;98980.97;5092159;28;20024;-49
2023/11/20 08:08:03;;;;;;;18.60;9.40;;;;;;;11.83;66.06;98994.63;5091995;28;20092;-49
2023/11/20 08:10:29;;;;;;;24.08;8.35;;;;;;;12.40;65.04;98995.03;5093274;28;20017;-49
2023/11/20 08:12:55;;;;;;;29.40;11.07;;;;;;;12.65;64.20;98987.28;5093207;28;20016;-49
2023/11/20 08:15:20;;;;;;;17.38;8.40;;;;;;;12.82;63.96;98995.56;5092949;28;20074;-49
2023/11/20 08:17:46;;;;;;;36.67;10.43;;;;;;;13.03;63.32;98994.47;5093112;28;20032;-49
2023/11/20 08:20:12;;;;;;;21.67;11.98;;;;;;;13.05;63.24;98994.28;5091735;28;20024;-49
2023/11/20 08:22:38;;;;;;;22.30;11.27;;;;;;;13.00;63.15;98989.63;5091841;28;20093;-49
2023/11/20 08:25:04;;;;;;;28.15;10.57;;;;;;;12.91;62.78;98993.50;5091664;28;20031;-49
2023/11/20 08:27:30;;;;;;;18.83;10.57;;;;;;;12.69;63.47;98992.97;5091783;28;20024;-50
2023/11/20 08:29:56;;;;;;;20.75;10.98;;;;;;;12.66;64.28;98985.50;5091616;28;20028;-50
2023/11/20 08:32:21;;;;;;;19.25;11.68;;;;;;;12.57;63.23;98985.69;5092753;28;20114;-49
2023/11/20 08:34:47;;;;;;;24.52;12.55;;;;;;;12.24;64.44;98980.47;5092850;28;20028;-49
2023/11/20 08:37:13;;;;;;;23.42;14.07;;;;;;;12.26;64.87;98967.94;5092698;28;20478;-49
2023/11/20 08:39:39;;;;;;;29.25;15.35;;;;;;;12.50;65.83;98970.94;5092679;28;20032;-49
2023/11/20 08:42:05;;;;;;;20.95;11.32;;;;;;;12.89;64.80;98974.47;5074630;28;20085;-50
2023/11/20 08:44:32;;;;;;;19.92;10.13;;;;;;;13.11;64.21;98969.72;5092654;28;20020;-49
2023/11/20 08:46:59;;;;;;;23.52;10.25;;;;;;;13.12;62.87;98972.16;5092535;28;20024;-50
2023/11/20 08:49:26;;;;;;;13.82;8.88;;;;;;;12.80;62.55;98976.53;5092531;28;20016;-49
2023/11/20 08:51:52;;;;;;;19.52;10.00;;;;;;;12.54;63.22;98977.41;5092481;28;20022;-49
2023/11/20 08:54:18;;;;;;;22.45;10.18;;;;;;;12.41;63.66;98980.84;5091150;28;20428;-49
2023/11/20 08:56:51;;;;;;;20.23;10.43;;;;;;;12.10;64.32;98977.03;5092402;28;20034;-49
2023/11/20 08:59:17;;;;;;;20.90;10.07;;;;;;;12.04;64.97;98977.84;5092465;28;20429;-49
2023/11/20 09:01:45;;;;;;;20.13;9.77;;;;;;;11.91;65.38;98970.78;5091050;28;20359;-49
2023/11/20 09:04:12;;;;;;;56.40;12.02;;;;;;;11.84;67.32;98977.81;5091049;28;20024;-49
2023/11/20 09:06:37;;;;;;;71.25;14.35;;;;;;;11.97;67.96;98975.22;5092553;28;20576;-49
2023/11/20 09:09:08;;;;;;;46.42;38.13;;;;;;;12.20;68.35;98974.00;5092083;28;20099;-49
2023/11/20 09:11:34;;;;;;;30.98;20.10;;;;;;;12.68;66.79;98976.34;5091566;28;20020;-49
2023/11/20 09:13:59;;;;;;;24.35;11.50;;;;;;;12.63;65.65;98970.09;5091843;28;20403;-49
2023/11/20 09:16:25;;;;;;;27.02;10.30;;;;;;;12.54;66.83;98974.78;5092154;28;20017;-49
2023/11/20 09:18:51;;;;;;;20.85;9.35;;;;;;;12.76;66.79;98973.50;5090788;28;20031;-49
2023/11/20 09:21:16;;;;;;;100.38;15.75;;;;;;;12.71;64.89;98970.66;5090745;28;20024;-49
2023/11/20 09:23:45;;;;;;;27.05;15.65;;;;;;;12.61;67.22;98965.03;5091961;28;20115;-49
2023/11/20 09:26:12;;;;;;;27.92;10.85;;;;;;;13.04;66.33;98972.41;5090620;28;20024;-49
2023/11/20 09:28:42;;;;;;;33.92;11.40;;;;;;;13.05;65.54;98973.19;5091901;28;20020;-50
2023/11/20 09:31:18;;;;;;;23.83;12.90;;;;;;;12.94;65.67;98979.94;5092141;28;20492;-49
2023/11/20 09:33:44;;;;;;;92.70;83.22;;;;;;;13.10;65.95;98981.25;5090589;28;20024;-49
2023/11/20 09:36:09;;;;;;;52.88;42.80;;;;;;;13.23;66.58;98978.59;5092174;28;20035;-49
2023/11/20 09:38:35;;;;;;;138.40;125.47;;;;;;;13.49;66.11;98975.03;5090599;28;20032;-49
2023/11/20 09:41:01;;;;;;;82.57;73.80;;;;;;;13.54;65.83;98975.22;5091818;28;20385;-50
2023/11/20 09:43:31;;;;;;;53.58;47.83;;;;;;;13.55;65.33;98983.94;5090620;28;20064;-49
2023/11/20 09:45:59;;;;;;;37.25;27.13;;;;;;;13.44;64.52;98979.31;5091829;28;20105;-49
2023/11/20 09:48:31;;;;;;;52.35;47.00;;;;;;;13.30;65.21;98974.13;5091793;28;20080;-49
2023/11/20 09:50:58;;;;;;;30.02;16.45;;;;;;;13.02;64.30;98974.44;5091792;28;20027;-49
2023/11/20 09:53:31;;;;;;;129.02;117.20;;;;;;;12.96;65.97;98967.38;5073565;28;20020;-49
2023/11/20 09:55:57;;;;;;;546.70;492.70;;;;;;;13.06;66.25;98972.16;5091726;28;20020;-49
2023/11/20 09:58:23;;;;;;;140.52;127.05;;;;;;;13.19;65.61;98956.31;5090382;28;20060;-50
2023/11/20 10:00:56;;;;;;;88.90;79.28;;;;;;;13.27;65.38;98960.53;5090372;28;20087;-49
2023/11/20 10:03:23;;;;;;;72.28;62.75;;;;;;;13.12;65.30;98963.41;5090360;28;20118;-49
2023/11/20 10:05:50;;;;;;;139.02;118.10;;;;;;;13.17;67.29;98963.63;5090293;28;20027;-49
2023/11/20 10:08:18;;;;;;;118.18;106.82;;;;;;;13.73;66.56;98970.81;5091559;28;20027;-49
2023/11/20 10:10:48;;;;;;;91.68;82.88;;;;;;;14.04;65.01;98973.63;5091816;28;20035;-49
2023/11/20 10:13:16;;;;;;;396.67;358.52;;;;;;;14.30;65.00;98972.59;5089865;28;20146;-50
2023/11/20 10:15:42;;;;;;;84.28;75.53;;;;;;;14.57;63.62;98971.34;5090300;28;20043;-49
2023/11/20 10:18:07;;;;;;;41.45;33.78;;;;;;;14.69;64.00;98960.88;5090204;28;20024;-49
2023/11/20 10:20:47;;;;;;;16.02;14.40;;;;;;;14.93;62.60;98945.97;5091497;28;20401;-49
2023/11/20 10:23:13;;;;;;;15.20;11.25;;;;;;;14.91;62.48;98940.09;5095326;28;20036;-49
2023/11/20 10:25:47;;;;;;;20.73;12.82;;;;;;;15.21;62.10;98926.06;5095355;28;20036;-47
2023/11/20 10:28:14;;;;;;;27.25;11.02;;;;;;;15.47;61.09;98918.78;5093995;28;20382;-47
2023/11/20 10:30:49;;;;;;;65.55;50.67;;;;;;;15.63;60.24;98910.19;5095420;28;20379;-47
2023/11/20 10:33:17;;;;;;;;;;;;;;;15.82;59.82;98913.59;5095576;28;20016;-47
2023/11/20 10:35:43;;;;;;;36.42;12.77;;;;;;;15.91;59.01;98911.41;5093815;28;19912;-47
2023/11/20 10:38:10;;;;;;;24.00;10.35;;;;;;;16.00;58.47;98910.06;5095285;28;20024;-47
2023/11/20 10:40:48;;;;;;;18.60;10.25;;;;;;;16.13;58.10;98899.22;5094999;28;20036;-47
2023/11/20 10:43:15;;;;;;;15.55;9.38;;;;;;;16.10;57.64;98899.69;5095004;28;20070;-47
2023/11/20 10:45:40;;;;;;;11.05;9.82;;;;;;;15.81;57.44;98896.09;5093621;28;20035;-47
2023/11/20 10:48:09;;;;;;;11.50;9.27;;;;;;;15.49;58.32;98895.56;5093570;28;20111;-47
2023/11/20 10:50:36;;;;;;;14.65;11.32;;;;;;;15.59;59.05;98898.47;5093531;28;20020;-47
2023/11/20 10:53:07;;;;;;;18.75;12.40;;;;;;;15.65;58.97;98896.75;5093438;28;20020;-47
2023/11/20 10:55:56;;;;;;;19.15;14.00;;;;;;;15.89;59.10;98895.75;5094747;28;20039;-47
2023/11/20 10:58:27;;;;;;;17.10;10.07;;;;;;;16.02;58.42;98894.75;5094771;28;20028;-47
2023/11/20 11:00:54;;;;;;;15.65;9.95;;;;;;;15.93;58.14;98885.53;5093349;28;20426;-47
2023/11/20 11:03:20;;;;;;;16.63;10.10;;;;;;;15.65;58.54;98888.81;5094556;28;20024;-47
2023/11/20 11:05:46;;;;;;;22.42;11.07;;;;;;;15.62;59.32;98887.44;5093236;28;20032;-47
2023/11/20 11:08:14;;;;;;;24.10;14.60;;;;;;;15.86;59.07;98879.56;5094429;28;20024;-47
2023/11/20 11:10:42;;;;;;;19.60;11.18;;;;;;;16.02;59.00;98873.56;5076448;28;20448;-47
2023/11/20 11:13:10;;;;;;;19.85;13.10;;;;;;;16.14;57.96;98863.78;5094010;28;20390;-48
2023/11/20 11:15:37;;;;;;;20.00;12.43;;;;;;;15.85;58.50;98873.44;5094460;28;20043;-47
2023/11/20 11:18:05;;;;;;;11.60;10.50;;;;;;;15.70;59.17;98859.84;5076177;28;20510;-47
2023/11/20 11:20:53;;;;;;;14.30;10.07;;;;;;;15.65;60.15;98852.56;5092961;28;20024;-47
2023/11/20 11:23:46;;;;;;;19.05;15.95;;;;;;;15.70;59.95;98852.69;5092940;28;20042;-47